Terminal Aerodrome Forecast
Issued by NWS Glasgow, MT

Home | Current Version | Previous Version | Text Only | Print | Product List | Glossary On
Versions: 1 2 3 4 5 6 7 8 9 10 11 12 13
760
FTUS45 KGGW 271121
TAFGGW
TAF
KGGW 271121Z 2712/2812 09007KT P6SM VCSH OVC070
     FM271800 11010KT P6SM BKN040
     FM280200 07011KT P6SM BKN060
     FM280600 07008KT P6SM BKN035
     FM280900 05007KT P6SM BKN025=

USA.gov is the U.S. government's official web portal to all federal, state and local government web resources and services.